sensor_id;sensor_type;location;lat;lon;timestamp;temperature;humidity
18268;DHT22;9260;49.998;19.880;2022-07-23T00:03:55;16.50;99.90
18268;DHT22;9260;49.998;19.880;2022-07-23T00:13:59;16.40;99.90
18268;DHT22;9260;49.998;19.880;2022-07-23T00:24:05;16.30;99.90
18268;DHT22;9260;49.998;19.880;2022-07-23T00:34:09;16.10;99.90
18268;DHT22;9260;49.998;19.880;2022-07-23T00:44:19;16.00;99.90
18268;DHT22;9260;49.998;19.880;2022-07-23T00:54:26;15.80;99.90
18268;DHT22;9260;49.998;19.880;2022-07-23T01:04:31;15.70;99.90
18268;DHT22;9260;49.998;19.880;2022-07-23T01:14:35;15.60;99.90
18268;DHT22;9260;49.998;19.880;2022-07-23T01:24:41;15.40;99.90
18268;DHT22;9260;49.998;19.880;2022-07-23T01:34:46;15.30;99.90
18268;DHT22;9260;49.998;19.880;2022-07-23T01:44:51;15.20;99.90
18268;DHT22;9260;49.998;19.880;2022-07-23T01:54:58;15.10;99.90
18268;DHT22;9260;49.998;19.880;2022-07-23T02:05:04;15.00;99.90
18268;DHT22;9260;49.998;19.880;2022-07-23T02:15:09;14.90;99.90
18268;DHT22;9260;49.998;19.880;2022-07-23T02:25:17;14.80;99.90
18268;DHT22;9260;49.998;19.880;2022-07-23T02:35:20;14.70;99.90
18268;DHT22;9260;49.998;19.880;2022-07-23T02:45:26;14.60;99.90
18268;DHT22;9260;49.998;19.880;2022-07-23T02:55:30;14.50;99.90
18268;DHT22;9260;49.998;19.880;2022-07-23T03:05:37;14.40;99.90
18268;DHT22;9260;49.998;19.880;2022-07-23T03:15:41;14.40;99.90
18268;DHT22;9260;49.998;19.880;2022-07-23T03:25:47;14.50;99.90
18268;DHT22;9260;49.998;19.880;2022-07-23T03:46:59;14.80;99.90
18268;DHT22;9260;49.998;19.880;2022-07-23T03:57:06;14.90;99.90
18268;DHT22;9260;49.998;19.880;2022-07-23T04:07:11;15.10;99.90
18268;DHT22;9260;49.998;19.880;2022-07-23T04:17:15;15.40;99.90
18268;DHT22;9260;49.998;19.880;2022-07-23T04:27:21;15.60;99.90
18268;DHT22;9260;49.998;19.880;2022-07-23T04:37:25;16.00;99.90
18268;DHT22;9260;49.998;19.880;2022-07-23T04:47:30;16.50;99.90
18268;DHT22;9260;49.998;19.880;2022-07-23T04:57:35;17.10;99.90
18268;DHT22;9260;49.998;19.880;2022-07-23T05:07:41;17.90;99.90
18268;DHT22;9260;49.998;19.880;2022-07-23T05:17:45;18.60;99.90
18268;DHT22;9260;49.998;19.880;2022-07-23T05:27:53;19.10;99.90
18268;DHT22;9260;49.998;19.880;2022-07-23T05:37:57;19.60;99.90
18268;DHT22;9260;49.998;19.880;2022-07-23T05:48:02;20.20;99.90
18268;DHT22;9260;49.998;19.880;2022-07-23T05:58:13;20.70;99.90
18268;DHT22;9260;49.998;19.880;2022-07-23T06:08:19;21.00;99.90
18268;DHT22;9260;49.998;19.880;2022-07-23T06:18:23;21.80;99.90
18268;DHT22;9260;49.998;19.880;2022-07-23T06:28:30;22.40;99.90
18268;DHT22;9260;49.998;19.880;2022-07-23T06:38:34;23.10;99.90
18268;DHT22;9260;49.998;19.880;2022-07-23T06:48:39;23.80;99.90
18268;DHT22;9260;49.998;19.880;2022-07-23T06:58:43;24.40;99.90
18268;DHT22;9260;49.998;19.880;2022-07-23T07:08:48;25.10;99.90
18268;DHT22;9260;49.998;19.880;2022-07-23T07:18:52;25.80;99.90
18268;DHT22;9260;49.998;19.880;2022-07-23T07:28:57;26.40;99.90
18268;DHT22;9260;49.998;19.880;2022-07-23T07:39:02;27.00;99.90
18268;DHT22;9260;49.998;19.880;2022-07-23T07:49:08;27.50;99.90
18268;DHT22;9260;49.998;19.880;2022-07-23T07:59:17;29.10;99.90
18268;DHT22;9260;49.998;19.880;2022-07-23T08:09:22;32.40;99.90
18268;DHT22;9260;49.998;19.880;2022-07-23T08:19:26;35.60;99.90
18268;DHT22;9260;49.998;19.880;2022-07-23T08:29:32;39.50;99.90
18268;DHT22;9260;49.998;19.880;2022-07-23T08:39:36;39.80;99.90
18268;DHT22;9260;49.998;19.880;2022-07-23T08:49:41;43.10;99.90
18268;DHT22;9260;49.998;19.880;2022-07-23T08:59:45;44.90;99.90
18268;DHT22;9260;49.998;19.880;2022-07-23T09:10:05;46.40;99.90
18268;DHT22;9260;49.998;19.880;2022-07-23T09:20:12;46.50;99.90
18268;DHT22;9260;49.998;19.880;2022-07-23T09:30:18;47.60;99.90
18268;DHT22;9260;49.998;19.880;2022-07-23T09:40:23;46.60;99.90
18268;DHT22;9260;49.998;19.880;2022-07-23T09:50:28;48.00;1.00
18268;DHT22;9260;49.998;19.880;2022-07-23T10:00:32;47.80;1.00
18268;DHT22;9260;49.998;19.880;2022-07-23T10:10:39;52.80;1.00
18268;DHT22;9260;49.998;19.880;2022-07-23T10:21:05;53.90;1.00
18268;DHT22;9260;49.998;19.880;2022-07-23T10:31:20;54.50;1.00
18268;DHT22;9260;49.998;19.880;2022-07-23T10:41:52;57.20;1.00
18268;DHT22;9260;49.998;19.880;2022-07-23T10:52:21;55.00;1.00
18268;DHT22;9260;49.998;19.880;2022-07-23T11:02:29;50.10;1.00
18268;DHT22;9260;49.998;19.880;2022-07-23T11:12:35;51.20;1.00
18268;DHT22;9260;49.998;19.880;2022-07-23T11:22:40;55.20;1.00
18268;DHT22;9260;49.998;19.880;2022-07-23T11:32:53;57.20;1.00
18268;DHT22;9260;49.998;19.880;2022-07-23T11:42:59;53.60;1.00
18268;DHT22;9260;49.998;19.880;2022-07-23T11:53:06;54.10;1.00
18268;DHT22;9260;49.998;19.880;2022-07-23T12:03:11;56.30;1.00
18268;DHT22;9260;49.998;19.880;2022-07-23T12:13:18;56.10;1.00
18268;DHT22;9260;49.998;19.880;2022-07-23T12:23:24;55.30;1.00
18268;DHT22;9260;49.998;19.880;2022-07-23T12:33:32;54.40;1.00
18268;DHT22;9260;49.998;19.880;2022-07-23T12:43:39;52.80;1.00
18268;DHT22;9260;49.998;19.880;2022-07-23T12:53:46;50.20;1.00
18268;DHT22;9260;49.998;19.880;2022-07-23T13:03:58;46.20;1.00
18268;DHT22;9260;49.998;19.880;2022-07-23T13:14:06;43.40;99.90
18268;DHT22;9260;49.998;19.880;2022-07-23T13:24:11;40.90;99.90
18268;DHT22;9260;49.998;19.880;2022-07-23T13:34:17;39.70;99.90
18268;DHT22;9260;49.998;19.880;2022-07-23T13:44:21;38.90;99.90
18268;DHT22;9260;49.998;19.880;2022-07-23T13:54:26;37.00;99.90
18268;DHT22;9260;49.998;19.880;2022-07-23T14:04:31;36.40;99.90
18268;DHT22;9260;49.998;19.880;2022-07-23T14:14:37;36.20;99.90
18268;DHT22;9260;49.998;19.880;2022-07-23T14:24:41;34.30;99.90
18268;DHT22;9260;49.998;19.880;2022-07-23T14:34:47;33.40;99.90
18268;DHT22;9260;49.998;19.880;2022-07-23T14:44:51;32.40;99.90
18268;DHT22;9260;49.998;19.880;2022-07-23T14:54:56;31.20;99.90
18268;DHT22;9260;49.998;19.880;2022-07-23T15:05:00;30.30;99.90
18268;DHT22;9260;49.998;19.880;2022-07-23T15:15:10;28.70;99.90
18268;DHT22;9260;49.998;19.880;2022-07-23T15:25:14;24.80;99.90
18268;DHT22;9260;49.998;19.880;2022-07-23T15:35:20;20.60;99.90
18268;DHT22;9260;49.998;19.880;2022-07-23T15:45:24;20.20;99.90
18268;DHT22;9260;49.998;19.880;2022-07-23T15:55:30;20.60;99.90
18268;DHT22;9260;49.998;19.880;2022-07-23T16:05:34;20.60;99.90
18268;DHT22;9260;49.998;19.880;2022-07-23T16:15:42;20.60;99.90
18268;DHT22;9260;49.998;19.880;2022-07-23T16:25:46;20.80;99.90
18268;DHT22;9260;49.998;19.880;2022-07-23T16:35:51;21.00;99.90
18268;DHT22;9260;49.998;19.880;2022-07-23T16:45:55;21.20;99.90
18268;DHT22;9260;49.998;19.880;2022-07-23T16:56:00;21.90;99.90
18268;DHT22;9260;49.998;19.880;2022-07-23T17:06:04;22.60;99.90
18268;DHT22;9260;49.998;19.880;2022-07-23T17:16:10;22.80;99.90
18268;DHT22;9260;49.998;19.880;2022-07-23T17:26:14;23.20;99.90
18268;DHT22;9260;49.998;19.880;2022-07-23T17:36:25;22.80;99.90
18268;DHT22;9260;49.998;19.880;2022-07-23T17:46:30;22.70;99.90
18268;DHT22;9260;49.998;19.880;2022-07-23T17:56:36;22.60;99.90
18268;DHT22;9260;49.998;19.880;2022-07-23T18:06:40;22.10;99.90
18268;DHT22;9260;49.998;19.880;2022-07-23T18:16:45;21.30;99.90
18268;DHT22;9260;49.998;19.880;2022-07-23T18:26:49;21.00;99.90
18268;DHT22;9260;49.998;19.880;2022-07-23T18:36:55;20.60;99.90
18268;DHT22;9260;49.998;19.880;2022-07-23T18:46:59;20.30;99.90
18268;DHT22;9260;49.998;19.880;2022-07-23T18:57:04;20.20;99.90
18268;DHT22;9260;49.998;19.880;2022-07-23T19:07:11;20.20;99.90
18268;DHT22;9260;49.998;19.880;2022-07-23T19:17:16;20.00;99.90
18268;DHT22;9260;49.998;19.880;2022-07-23T19:27:21;19.90;99.90
18268;DHT22;9260;49.998;19.880;2022-07-23T19:37:26;19.70;99.90
18268;DHT22;9260;49.998;19.880;2022-07-23T19:47:30;19.40;99.90
18268;DHT22;9260;49.998;19.880;2022-07-23T19:57:35;19.20;99.90
18268;DHT22;9260;49.998;19.880;2022-07-23T20:07:40;18.90;99.90
18268;DHT22;9260;49.998;19.880;2022-07-23T20:17:46;18.90;99.90
18268;DHT22;9260;49.998;19.880;2022-07-23T20:27:50;18.80;99.90
18268;DHT22;9260;49.998;19.880;2022-07-23T20:37:55;18.80;99.90
18268;DHT22;9260;49.998;19.880;2022-07-23T20:47:59;18.80;99.90
18268;DHT22;9260;49.998;19.880;2022-07-23T20:58:04;18.70;99.90
18268;DHT22;9260;49.998;19.880;2022-07-23T21:08:08;20.50;99.90
18268;DHT22;9260;49.998;19.880;2022-07-23T21:18:13;18.20;99.90
18268;DHT22;9260;49.998;19.880;2022-07-23T21:28:17;18.00;99.90
18268;DHT22;9260;49.998;19.880;2022-07-23T21:38:22;17.80;99.90
18268;DHT22;9260;49.998;19.880;2022-07-23T21:48:26;17.70;99.90
18268;DHT22;9260;49.998;19.880;2022-07-23T21:58:31;17.60;99.90
18268;DHT22;9260;49.998;19.880;2022-07-23T22:08:35;17.80;99.90
18268;DHT22;9260;49.998;19.880;2022-07-23T22:18:41;18.00;99.90
18268;DHT22;9260;49.998;19.880;2022-07-23T22:28:45;18.10;99.90
18268;DHT22;9260;49.998;19.880;2022-07-23T22:38:50;18.10;99.90
18268;DHT22;9260;49.998;19.880;2022-07-23T22:48:54;18.00;99.90
18268;DHT22;9260;49.998;19.880;2022-07-23T22:58:59;18.00;99.90
18268;DHT22;9260;49.998;19.880;2022-07-23T23:09:24;18.10;99.90
18268;DHT22;9260;49.998;19.880;2022-07-23T23:19:30;17.90;99.90
18268;DHT22;9260;49.998;19.880;2022-07-23T23:29:34;17.70;99.90
18268;DHT22;9260;49.998;19.880;2022-07-23T23:39:39;17.50;99.90
18268;DHT22;9260;49.998;19.880;2022-07-23T23:49:43;17.50;99.90
18268;DHT22;9260;49.998;19.880;2022-07-23T23:59:48;17.50;99.90
